Thunder radar more information blitzortung!


Löydät sääaseman tiedot myös:

European Weather Network

Finland Weather Exchange

Weather Underground

AWEKAS



Weather Underground säähistoriasivu

Päivittäin yhteenveto Heinäkuu 7, 2017 Yksiköt:  Englantilaiset    Metriset   Molemmat
« Edellinen Päivä
Seuraava Päivä »
Päivittäin Viikoittain Kuukausittain Vuosittain Mukautettu
  Korkea: Matala: Keskiarvo:
Lämpötila: TemperatureC °F 4.7 °F 13.5 °F
Kastepiste: DewpointC °F 3.8 °F 7.3 °F
Kosteus: Humidity % 41 % 69 %
Tuulen nopeus: WindSpeedKMH mph 0.0 mph 0.3 mph
Tuulenpuuska: WindSpeedGustKMH mph - -
Tuuli:- - West
Ilmanpaine: PressurehPa in 1011.1 in -
Sade: 0.0 in    
Historical Graphs
 
 
Taulukkotiedot Heinäkuu 7, 2017
Aika Lämpötila Kastepiste Ilmanpaine Tuuli Tuulen nopeus Tuulenpuuska Kosteus Sademäärä (tunneittain)
TemperatureC °F DewpointC °F PressurehPa in Calm     Humidity % HourlyPrecipMM in
00:00 8.1 °F 6.4 °F 1012.8 in Calm     89 % 0.0 in
00:15 7.8 °F 6.1 °F 1012.8 in Calm     89 % 0.0 in
00:30 7.4 °F 5.7 °F 1012.8 in Calm     89 % 0.0 in
00:45 7.1 °F 5.5 °F 1012.8 in Calm     90 % 0.0 in
01:00 6.6 °F 5.2 °F 1012.8 in Calm     91 % 0.0 in
01:15 6.1 °F 4.8 °F 1012.8 in Calm     91 % 0.0 in
01:30 5.8 °F 4.6 °F 1012.8 in Calm     92 % 0.0 in
01:45 5.3 °F 4.1 °F 1012.8 in Calm     92 % 0.0 in
02:00 4.9 °F 3.9 °F 1012.8 in Calm     93 % 0.0 in
02:15 4.7 °F 3.8 °F 1012.8 in Calm     94 % 0.0 in
02:30 4.8 °F 3.9 °F 1012.8 in Calm     94 % 0.0 in
02:45 4.9 °F 4.2 °F 1012.8 in Calm     95 % 0.0 in
03:00 4.9 °F 4.1 °F 1012.8 in Calm     94 % 0.0 in
03:15 5.1 °F 4.3 °F 1012.8 in Calm     95 % 0.0 in
03:30 5.2 °F 4.4 °F 1012.8 in Calm     95 % 0.0 in
03:45 5.0 °F 4.3 °F 1012.8 in Calm     95 % 0.0 in
04:00 4.8 °F 4.0 °F 1012.8 in Calm     95 % 0.0 in
04:15 4.8 °F 4.1 °F 1012.8 in Calm     95 % 0.0 in
04:30 4.9 °F 4.4 °F 1012.8 in Calm   3.2 mph 96 % 0.0 in
04:45 5.6 °F 5.0 °F 1012.8 in Calm   3.2 mph 96 % 0.0 in
05:00 6.0 °F 5.4 °F 1012.4 in Calm   4.8 mph 96 % 0.0 in
05:15 6.2 °F 5.6 °F 1012.4 in Calm   4.8 mph 96 % 0.0 in
05:30 6.4 °F 5.8 °F 1012.4 in Calm   3.2 mph 96 % 0.0 in
05:45 6.5 °F 5.9 °F 1012.4 in Calm     96 % 0.0 in
06:00 6.8 °F 6.2 °F 1012.4 in Calm   4.8 mph 96 % 0.0 in
06:15 7.2 °F 6.8 °F 1012.4 in Calm   4.8 mph 97 % 0.0 in
06:30 7.7 °F 7.3 °F 1012.4 in Calm   6.4 mph 97 % 0.0 in
06:45 8.6 °F 8.1 °F 1012.4 in SSW 1.6 mph 6.4 mph 97 % 0.0 in
07:00 8.9 °F 8.3 °F 1012.4 in Calm   4.8 mph 96 % 0.0 in
07:15 9.4 °F 8.6 °F 1012.4 in Calm   4.8 mph 95 % 0.0 in
07:30 9.9 °F 9.2 °F 1012.4 in Calm   4.8 mph 95 % 0.0 in
07:45 10.5 °F 9.6 °F 1012.4 in Calm   3.2 mph 94 % 0.0 in
08:00 10.9 °F 9.8 °F 1012.4 in Calm     93 % 0.0 in
08:15 11.4 °F 10.3 °F 1012.4 in Calm     93 % 0.0 in
08:30 11.9 °F 10.6 °F 1012.4 in Calm     92 % 0.0 in
08:45 12.7 °F 11.1 °F 1012.4 in Calm   6.4 mph 90 % 0.0 in
09:00 13.4 °F 11.7 °F 1012.4 in Calm     89 % 0.0 in
09:15 14.3 °F 11.8 °F 1012.4 in Calm   1.6 mph 85 % 0.0 in
09:30 15.1 °F 11.9 °F 1012.4 in Calm   1.6 mph 81 % 0.0 in
09:45 16.0 °F 12.5 °F 1012.4 in Calm     80 % 0.0 in
10:00 16.5 °F 12.8 °F 1012.4 in Calm   1.6 mph 79 % 0.0 in
10:15 16.7 °F 12.6 °F 1012.4 in Calm   3.2 mph 77 % 0.0 in
10:30 17.3 °F 12.6 °F 1012.4 in Calm     74 % 0.0 in
10:45 17.8 °F 11.1 °F 1012.4 in Calm   6.4 mph 65 % 0.0 in
11:00 18.1 °F 10.5 °F 1012.4 in Calm   6.4 mph 61 % 0.0 in
11:15 18.6 °F 9.1 °F 1012.4 in WNW 1.6 mph 8.0 mph 54 % 0.0 in
11:30 17.3 °F 7.9 °F 1012.4 in NW 1.6 mph 6.4 mph 54 % 0.0 in
11:45 17.3 °F 7.3 °F 1012.4 in Calm   9.7 mph 52 % 0.0 in
12:00 17.9 °F 7.0 °F 1012.1 in NW 3.2 mph 9.7 mph 49 % 0.0 in
12:15 17.8 °F 5.7 °F 1012.1 in WNW 1.6 mph 11.3 mph 45 % 0.0 in
12:30 18.8 °F 6.6 °F 1012.1 in NNE 1.6 mph 9.7 mph 45 % 0.0 in
12:45 18.6 °F 6.1 °F 1012.1 in NW 1.6 mph 6.4 mph 44 % 0.0 in
13:00 19.2 °F 7.9 °F 1012.1 in WNW 1.6 mph 9.7 mph 48 % 0.0 in
13:15 18.3 °F 6.5 °F 1012.1 in Calm   6.4 mph 46 % 0.0 in
13:30 19.1 °F 5.8 °F 1012.1 in WNW 3.2 mph 9.7 mph 42 % 0.0 in
13:45 18.8 °F 7.0 °F 1012.1 in NW 1.6 mph 9.7 mph 46 % 0.0 in
14:00 18.5 °F 8.2 °F 1012.1 in NW 1.6 mph 6.4 mph 51 % 0.0 in
14:15 19.4 °F 6.1 °F 1012.1 in NW 1.6 mph 9.7 mph 42 % 0.0 in
14:30 20.3 °F 7.3 °F 1011.7 in Calm   4.8 mph 43 % 0.0 in
14:45 19.9 °F 7.3 °F 1012.1 in Calm   8.0 mph 44 % 0.0 in
15:00 19.3 °F 7.1 °F 1012.1 in NW 1.6 mph 9.7 mph 45 % 0.0 in
15:15 19.1 °F 7.5 °F 1012.1 in Calm   3.2 mph 47 % 0.0 in
15:30 18.6 °F 6.7 °F 1012.1 in Calm   1.6 mph 46 % 0.0 in
15:45 19.7 °F 6.7 °F 1011.7 in NW 3.2 mph 9.7 mph 43 % 0.0 in
16:00 20.0 °F 6.3 °F 1011.7 in Calm   4.8 mph 41 % 0.0 in
16:15 19.7 °F 6.0 °F 1011.7 in Calm   1.6 mph 41 % 0.0 in
16:30 19.4 °F 8.1 °F 1011.7 in Calm   4.8 mph 48 % 0.0 in
16:45 19.1 °F 9.3 °F 1011.7 in Calm   3.2 mph 53 % 0.0 in
17:00 18.8 °F 8.1 °F 1011.7 in Calm   1.6 mph 50 % 0.0 in
17:15 18.4 °F 8.4 °F 1011.7 in Calm     52 % 0.0 in
17:30 18.3 °F 9.3 °F 1011.4 in Calm     56 % 0.0 in
17:45 18.7 °F 8.6 °F 1011.7 in Calm     52 % 0.0 in
18:00 18.9 °F 9.1 °F 1011.4 in Calm     53 % 0.0 in
18:15 19.1 °F 8.4 °F 1011.4 in Calm     50 % 0.0 in
18:30 18.9 °F 9.1 °F 1011.4 in Calm     53 % 0.0 in
18:45 18.7 °F 9.4 °F 1011.4 in Calm     55 % 0.0 in
19:00 18.8 °F 9.3 °F 1011.4 in Calm   1.6 mph 54 % 0.0 in
19:15 19.2 °F 7.6 °F 1011.4 in Calm   1.6 mph 47 % 0.0 in
19:30 19.4 °F 7.2 °F 1011.4 in Calm   1.6 mph 45 % 0.0 in
19:45 19.4 °F 7.1 °F 1011.4 in Calm   3.2 mph 45 % 0.0 in
20:00 19.5 °F 6.6 °F 1011.4 in Calm   1.6 mph 43 % 0.0 in
20:15 19.6 °F 7.0 °F 1011.1 in Calm   1.6 mph 44 % 0.0 in
20:30 18.9 °F 6.7 °F 1011.1 in Calm   4.8 mph 45 % 0.0 in
20:45 18.7 °F 6.2 °F 1011.1 in Calm   1.6 mph 44 % 0.0 in
21:00 18.1 °F 6.6 °F 1011.4 in Calm   3.2 mph 47 % 0.0 in
21:15 17.6 °F 5.8 °F 1011.4 in Calm     46 % 0.0 in
21:30 17.1 °F 6.0 °F 1011.4 in Calm     48 % 0.0 in
21:45 16.7 °F 8.4 °F 1011.4 in Calm     58 % 0.0 in
22:00 16.1 °F 9.0 °F 1011.4 in Calm     63 % 0.0 in
22:15 15.2 °F 8.9 °F 1011.4 in Calm     66 % 0.0 in
22:30 14.1 °F 8.5 °F 1011.4 in Calm     69 % 0.0 in
22:45 13.2 °F 8.5 °F 1011.4 in Calm     73 % 0.0 in
23:00 12.3 °F 8.0 °F 1011.7 in Calm     75 % 0.0 in
23:30 11.0 °F 7.3 °F 1011.7 in Calm     78 % 0.0 in
23:45 10.5 °F 7.4 °F 1011.7 in Calm     81 % 0.0 in
Esan sääasema
Terveisin Weather Underground - 2.75 mb

Alkuperäinen skripti  Jim McMurry - jmcmurry@mwt.net Sovitettu myös templatelle  Wim van der Kuil - Leuven-Template.eu

Laitteet joita käytämme:

Sääasema
Davis VP2

Sääasemaohjelma
Cumulus

Sääaseman tietokone
Asus EeePC

Palveluntarjoaja
Suncomet

Davis VP2

Cumulus

Asus EeePC

Suncomet